Time;durP1;ratioP1;P1;durP2;ratioP2;P2;SDS_P1;SDS_P2;PMS_P1;PMS_P2;Temp;Humidity;BMP_temperature;BMP_pressure;BME280_temperature;BME280_humidity;BME280_pressure;Samples;Min_cycle;Max_cycle;Signal;HPM_P1;HPM_P2
2021/03/08 00:00:24;;;;;;;15.98;11.25;;;;;;;;;;5076688;28;20027;-63
2021/03/08 00:02:51;;;;;;;18.77;11.30;;;;;;;;;;5076528;28;20030;-63
2021/03/08 00:05:17;;;;;;;17.58;10.75;;;;;;;;;;5076498;28;20052;-63
2021/03/08 00:07:44;;;;;;;16.70;11.10;;;;;;;;;;5076408;28;20031;-63
2021/03/08 00:10:10;;;;;;;16.45;10.00;;;;;;;;;;5076551;28;20025;-63
2021/03/08 00:12:35;;;;;;;17.25;10.32;;;;;;;;;;5076423;28;20032;-64
2021/03/08 00:15:01;;;;;;;15.30;9.95;;;;;;;;;;5076505;28;20016;-64
2021/03/08 00:17:26;;;;;;;15.38;10.38;;;;;;;;;;5058424;28;20039;-64
2021/03/08 00:19:52;;;;;;;12.88;9.13;;;;;;;;;;5076133;28;20427;-64
2021/03/08 00:22:18;;;;;;;12.73;9.55;;;;;;;;;;5076102;28;20029;-64
2021/03/08 00:24:43;;;;;;;12.20;9.38;;;;;;;;;;5076200;28;20142;-64
2021/03/08 00:27:09;;;;;;;14.40;9.45;;;;;;;;;;5076324;28;20024;-64
2021/03/08 00:29:35;;;;;;;14.40;10.02;;;;;;;;;;5058234;28;20386;-64
2021/03/08 00:32:00;;;;;;;12.70;9.85;;;;;;;;;;5076100;28;20090;-64
2021/03/08 00:34:26;;;;;;;16.38;10.90;;;;;;;;;;5075982;28;20103;-64
2021/03/08 00:36:51;;;;;;;15.23;10.43;;;;;;;;;;5076095;28;20029;-64
2021/03/08 00:39:17;;;;;;;14.77;10.65;;;;;;;;;;5075972;28;20039;-64
2021/03/08 00:41:43;;;;;;;16.23;11.05;;;;;;;;;;5075700;28;20028;-64
2021/03/08 00:44:08;;;;;;;16.60;11.57;;;;;;;;;;5075726;28;20531;-63
2021/03/08 00:46:34;;;;;;;14.73;11.05;;;;;;;;;;5075716;28;20017;-64
2021/03/08 00:49:00;;;;;;;16.38;10.90;;;;;;;;;;5075572;28;20103;-64
2021/03/08 00:51:26;;;;;;;13.10;10.50;;;;;;;;;;5075519;28;20086;-64
2021/03/08 00:53:51;;;;;;;15.77;11.27;;;;;;;;;;5074549;28;20032;-63
2021/03/08 00:56:17;;;;;;;13.43;10.52;;;;;;;;;;5041245;28;20032;-63
2021/03/08 00:58:43;;;;;;;13.77;9.50;;;;;;;;;;5041200;28;20048;-63
2021/03/08 01:01:08;;;;;;;14.77;10.10;;;;;;;;;;5057507;28;20110;-63
2021/03/08 01:03:35;;;;;;;14.43;9.93;;;;;;;;;;5057487;28;20354;-63
2021/03/08 01:06:01;;;;;;;14.25;10.48;;;;;;;;;;5057620;28;20138;-63
2021/03/08 01:08:36;;;;;;;11.48;8.40;;;;;;;;;;5074315;28;20021;-63
2021/03/08 01:11:04;;;;;;;14.70;10.45;;;;;;;;;;5075408;28;20050;-63
2021/03/08 01:13:36;;;;;;;10.60;9.38;;;;;;;;;;5057229;28;20020;-63
2021/03/08 01:16:01;;;;;;;13.38;10.10;;;;;;;;;;5075368;28;20111;-63
2021/03/08 01:18:27;;;;;;;12.57;9.80;;;;;;;;;;5075302;28;20013;-63
2021/03/08 01:20:53;;;;;;;12.57;9.85;;;;;;;;;;5057172;28;20066;-63
2021/03/08 01:23:18;;;;;;;12.23;9.60;;;;;;;;;;5075124;28;20017;-63
2021/03/08 01:25:44;;;;;;;13.57;10.10;;;;;;;;;;5075163;28;20031;-63
2021/03/08 01:28:10;;;;;;;12.77;9.77;;;;;;;;;;5075215;28;20067;-63
2021/03/08 01:30:39;;;;;;;12.95;9.88;;;;;;;;;;5075058;28;20059;-63
2021/03/08 01:33:05;;;;;;;12.03;9.13;;;;;;;;;;5057085;28;20111;-63
2021/03/08 01:35:31;;;;;;;13.70;10.15;;;;;;;;;;5074856;28;20123;-63
2021/03/08 01:37:57;;;;;;;13.68;10.18;;;;;;;;;;5074832;28;20023;-63
2021/03/08 01:40:24;;;;;;;15.25;10.43;;;;;;;;;;5074801;28;20399;-63
2021/03/08 01:42:49;;;;;;;12.55;10.20;;;;;;;;;;5074739;28;20070;-63
2021/03/08 01:45:16;;;;;;;13.50;9.38;;;;;;;;;;5073373;28;20386;-64
2021/03/08 01:47:43;;;;;;;13.18;9.93;;;;;;;;;;5056685;28;20473;-64
2021/03/08 01:50:11;;;;;;;11.90;9.23;;;;;;;;;;5074105;28;20082;-64
2021/03/08 01:52:36;;;;;;;13.45;9.93;;;;;;;;;;5074626;28;20054;-64
2021/03/08 01:55:02;;;;;;;13.43;9.95;;;;;;;;;;5074517;28;20487;-64
2021/03/08 01:57:28;;;;;;;11.68;9.48;;;;;;;;;;5074451;28;20415;-64
2021/03/08 01:59:53;;;;;;;13.70;9.75;;;;;;;;;;5073723;28;20063;-63
2021/03/08 02:02:19;;;;;;;16.38;10.85;;;;;;;;;;5074105;28;20096;-64
2021/03/08 02:04:45;;;;;;;13.10;10.32;;;;;;;;;;5056429;28;20425;-63
2021/03/08 02:07:11;;;;;;;12.90;10.35;;;;;;;;;;5073105;28;20016;-63
2021/03/08 02:09:37;;;;;;;15.38;11.18;;;;;;;;;;5073841;28;20016;-63
2021/03/08 02:12:25;;;;;;;15.18;10.88;;;;;;;;;;5074212;28;20021;-63
2021/03/08 02:14:51;;;;;;;15.30;11.32;;;;;;;;;;5073732;28;20033;-63
2021/03/08 02:17:17;;;;;;;17.45;11.95;;;;;;;;;;5074129;28;20522;-63
2021/03/08 02:19:43;;;;;;;15.73;11.57;;;;;;;;;;5074101;28;20395;-63
2021/03/08 02:22:20;;;;;;;16.45;11.30;;;;;;;;;;5073846;28;20021;-63
2021/03/08 02:24:55;;;;;;;15.00;10.20;;;;;;;;;;5056223;28;20434;-63
2021/03/08 02:27:21;;;;;;;13.82;10.52;;;;;;;;;;5073968;28;20020;-64
2021/03/08 02:29:49;;;;;;;13.35;10.02;;;;;;;;;;5056002;28;20020;-63
2021/03/08 02:32:17;;;;;;;16.13;12.30;;;;;;;;;;5072688;28;20036;-63
2021/03/08 02:35:01;;;;;;;17.48;13.05;;;;;;;;;;5074032;28;20062;-63
2021/03/08 02:37:28;;;;;;;14.68;11.48;;;;;;;;;;5073728;28;20040;-63
2021/03/08 02:39:59;;;;;;;16.80;13.23;;;;;;;;;;5073531;28;20069;-63
2021/03/08 02:42:26;;;;;;;14.73;11.20;;;;;;;;;;5073587;28;20463;-63
2021/03/08 02:44:54;;;;;;;15.82;12.35;;;;;;;;;;5073819;28;20017;-63
2021/03/08 02:47:21;;;;;;;18.70;13.07;;;;;;;;;;5073581;28;20028;-63
2021/03/08 02:49:47;;;;;;;17.20;13.13;;;;;;;;;;5073324;28;20024;-64
2021/03/08 02:52:13;;;;;;;14.60;12.07;;;;;;;;;;5073589;28;20086;-63
2021/03/08 02:54:41;;;;;;;16.55;13.55;;;;;;;;;;5073901;28;20413;-63
2021/03/08 02:57:09;;;;;;;17.02;12.68;;;;;;;;;;5072235;28;20029;-63
2021/03/08 02:59:39;;;;;;;15.88;11.90;;;;;;;;;;5073544;28;20056;-63
2021/03/08 03:02:05;;;;;;;17.30;12.60;;;;;;;;;;5055617;28;20028;-63
2021/03/08 03:04:31;;;;;;;18.77;12.73;;;;;;;;;;5073260;28;20066;-63
2021/03/08 03:07:00;;;;;;;16.55;12.07;;;;;;;;;;5073437;28;20067;-63
2021/03/08 03:09:26;;;;;;;18.05;12.32;;;;;;;;;;5073537;28;20013;-63
2021/03/08 03:11:53;;;;;;;17.95;12.88;;;;;;;;;;5072360;28;20037;-63
2021/03/08 03:14:20;;;;;;;18.85;13.45;;;;;;;;;;5073391;28;20040;-63
2021/03/08 03:16:46;;;;;;;21.38;13.93;;;;;;;;;;5073287;28;20033;-63
2021/03/08 03:19:12;;;;;;;22.77;14.05;;;;;;;;;;5073257;28;20035;-63
2021/03/08 03:21:38;;;;;;;14.00;10.23;;;;;;;;;;5072962;28;20391;-63
2021/03/08 03:24:07;;;;;;;21.20;14.18;;;;;;;;;;5073119;28;20016;-64
2021/03/08 03:26:33;;;;;;;22.27;14.27;;;;;;;;;;5073139;28;20052;-64
2021/03/08 03:28:58;;;;;;;19.92;14.32;;;;;;;;;;5073068;28;20432;-63
2021/03/08 03:31:25;;;;;;;21.00;14.73;;;;;;;;;;5073101;28;20025;-64
2021/03/08 03:33:51;;;;;;;21.60;15.02;;;;;;;;;;5072963;28;20059;-63
2021/03/08 03:36:17;;;;;;;19.38;13.30;;;;;;;;;;5073041;28;20040;-63
2021/03/08 03:38:44;;;;;;;22.70;14.88;;;;;;;;;;5073093;28;20031;-63
2021/03/08 03:41:09;;;;;;;20.85;13.80;;;;;;;;;;5072927;28;20032;-64
2021/03/08 03:43:36;;;;;;;19.35;14.65;;;;;;;;;;5072990;28;20016;-63
2021/03/08 03:46:02;;;;;;;18.15;13.52;;;;;;;;;;5055021;28;20043;-64
2021/03/08 03:48:28;;;;;;;20.40;14.30;;;;;;;;;;5072962;28;20024;-64
2021/03/08 03:50:53;;;;;;;19.63;14.15;;;;;;;;;;5054560;28;20041;-64
2021/03/08 03:53:19;;;;;;;19.38;13.57;;;;;;;;;;5072792;28;20506;-63
2021/03/08 03:55:44;;;;;;;18.33;13.15;;;;;;;;;;5072835;28;20135;-63
2021/03/08 03:58:30;;;;;;;19.85;13.93;;;;;;;;;;5072911;28;20060;-63
2021/03/08 04:01:14;;;;;;;20.15;14.32;;;;;;;;;;5072780;28;20021;-63
2021/03/08 04:03:49;;;;;;;18.30;14.15;;;;;;;;;;5071466;28;20079;-63
2021/03/08 04:06:16;;;;;;;18.98;13.98;;;;;;;;;;5054990;28;20426;-63
2021/03/08 04:08:47;;;;;;;21.85;14.70;;;;;;;;;;5072681;28;20021;-63
2021/03/08 04:11:13;;;;;;;20.75;14.57;;;;;;;;;;5072777;28;20021;-63
2021/03/08 04:13:39;;;;;;;19.67;14.43;;;;;;;;;;5072766;28;20016;-63
2021/03/08 04:16:06;;;;;;;21.13;14.82;;;;;;;;;;5072767;28;20035;-63
2021/03/08 04:18:32;;;;;;;22.02;14.18;;;;;;;;;;5072617;28;20019;-63
2021/03/08 04:21:02;;;;;;;23.33;15.48;;;;;;;;;;5054693;28;20123;-63
2021/03/08 04:23:29;;;;;;;19.63;13.82;;;;;;;;;;5073983;28;20479;-64
2021/03/08 04:25:55;;;;;;;21.17;14.48;;;;;;;;;;5076194;28;20035;-64
2021/03/08 04:28:22;;;;;;;19.85;13.98;;;;;;;;;;5076152;28;20016;-64
2021/03/08 04:30:48;;;;;;;20.40;13.85;;;;;;;;;;5076067;28;20116;-64
2021/03/08 04:33:14;;;;;;;21.20;14.38;;;;;;;;;;5076134;28;20415;-64
2021/03/08 04:35:41;;;;;;;19.80;13.90;;;;;;;;;;5058044;28;20102;-64
2021/03/08 04:38:07;;;;;;;20.48;13.98;;;;;;;;;;5058170;28;20033;-64
2021/03/08 04:40:33;;;;;;;21.52;14.68;;;;;;;;;;5074836;28;20032;-63
2021/03/08 04:43:01;;;;;;;19.05;13.60;;;;;;;;;;5075773;28;20027;-64
2021/03/08 04:45:27;;;;;;;20.70;14.02;;;;;;;;;;5057919;28;20035;-64
2021/03/08 04:47:53;;;;;;;21.00;14.45;;;;;;;;;;5057999;28;20100;-63
2021/03/08 04:50:18;;;;;;;22.45;15.00;;;;;;;;;;5057471;28;20040;-64
2021/03/08 04:52:48;;;;;;;21.25;14.10;;;;;;;;;;5058290;28;20415;-63
2021/03/08 04:55:14;;;;;;;18.92;14.85;;;;;;;;;;5075673;28;20125;-63
2021/03/08 04:57:40;;;;;;;20.92;15.20;;;;;;;;;;5074367;28;20411;-63
2021/03/08 05:00:10;;;;;;;21.65;15.20;;;;;;;;;;5075599;28;20037;-63
2021/03/08 05:02:36;;;;;;;19.60;14.35;;;;;;;;;;5075699;28;20033;-63
2021/03/08 05:05:06;;;;;;;21.55;15.00;;;;;;;;;;5075796;28;20035;-63
2021/03/08 05:07:33;;;;;;;19.23;14.43;;;;;;;;;;5075616;28;20427;-63
2021/03/08 05:10:00;;;;;;;19.27;14.18;;;;;;;;;;5075586;28;20008;-63
2021/03/08 05:12:27;;;;;;;22.23;15.48;;;;;;;;;;5075429;28;20489;-63
2021/03/08 05:14:55;;;;;;;19.75;15.32;;;;;;;;;;5075468;28;20048;-63
2021/03/08 05:17:22;;;;;;;19.08;14.50;;;;;;;;;;5075183;28;20032;-63
2021/03/08 05:19:48;;;;;;;20.35;15.60;;;;;;;;;;5074131;28;20382;-63
2021/03/08 05:22:15;;;;;;;22.40;15.80;;;;;;;;;;5075051;28;20028;-63
2021/03/08 05:24:41;;;;;;;19.73;15.30;;;;;;;;;;5075146;28;20104;-62
2021/03/08 05:27:10;;;;;;;22.75;16.13;;;;;;;;;;5075195;28;20028;-61
2021/03/08 05:29:39;;;;;;;21.25;15.13;;;;;;;;;;5075373;28;20031;-63
2021/03/08 05:32:08;;;;;;;23.60;15.70;;;;;;;;;;5075038;28;20478;-62
2021/03/08 05:34:34;;;;;;;23.48;15.70;;;;;;;;;;5073995;28;20112;-62
2021/03/08 05:37:00;;;;;;;20.50;15.02;;;;;;;;;;5075001;28;20072;-62
2021/03/08 05:39:26;;;;;;;22.23;15.30;;;;;;;;;;5074984;28;20055;-64
2021/03/08 05:42:06;;;;;;;22.20;15.70;;;;;;;;;;5074763;28;20387;-63
2021/03/08 05:44:32;;;;;;;;;;;;;;;;;;5075194;28;20078;-64
2021/03/08 05:46:57;;;;;;;22.42;15.88;;;;;;;;;;5074729;28;19995;-64
2021/03/08 05:49:23;;;;;;;23.10;15.38;;;;;;;;;;5074853;28;20024;-64
2021/03/08 05:52:07;;;;;;;20.20;15.23;;;;;;;;;;5074417;28;20119;-64
2021/03/08 05:54:36;;;;;;;21.00;15.45;;;;;;;;;;5074726;28;20040;-62
2021/03/08 05:57:18;;;;;;;21.25;15.80;;;;;;;;;;5074395;28;20020;-62
2021/03/08 05:59:50;;;;;;;20.55;15.57;;;;;;;;;;5055933;28;20036;-62
2021/03/08 06:02:15;;;;;;;19.40;15.45;;;;;;;;;;5049031;28;20039;-62
2021/03/08 06:05:00;;;;;;;24.25;16.70;;;;;;;;;;5074324;28;20012;-62
2021/03/08 06:07:48;;;;;;;22.98;16.65;;;;;;;;;;5042107;28;20483;-62
2021/03/08 06:10:23;;;;;;;21.58;15.52;;;;;;;;;;5054150;28;20025;-62
2021/03/08 06:12:50;;;;;;;23.40;16.88;;;;;;;;;;5054664;28;20363;-62
2021/03/08 06:15:17;;;;;;;23.52;16.48;;;;;;;;;;5054669;28;20120;-63
2021/03/08 06:17:43;;;;;;;24.27;17.20;;;;;;;;;;5054191;28;20037;-62
2021/03/08 06:20:09;;;;;;;26.77;17.38;;;;;;;;;;5036260;28;20021;-63
2021/03/08 06:22:36;;;;;;;24.13;17.38;;;;;;;;;;5054078;28;20036;-63
2021/03/08 06:25:02;;;;;;;24.80;17.70;;;;;;;;;;5054327;28;20087;-62
2021/03/08 06:27:28;;;;;;;22.38;16.35;;;;;;;;;;5054404;28;20057;-62
2021/03/08 06:29:53;;;;;;;24.23;16.92;;;;;;;;;;5054207;28;20025;-63
2021/03/08 06:32:19;;;;;;;24.23;17.05;;;;;;;;;;5035915;28;20047;-63
2021/03/08 06:34:45;;;;;;;21.63;16.70;;;;;;;;;;5054162;28;20079;-62
2021/03/08 06:37:12;;;;;;;22.92;16.67;;;;;;;;;;5054190;28;20062;-63
2021/03/08 06:39:41;;;;;;;25.77;18.40;;;;;;;;;;5054134;28;20467;-63
2021/03/08 06:42:07;;;;;;;34.38;19.90;;;;;;;;;;5056620;28;20041;-64
2021/03/08 06:44:32;;;;;;;26.58;18.05;;;;;;;;;;5053578;28;20075;-64
2021/03/08 06:46:58;;;;;;;25.25;17.48;;;;;;;;;;5053167;28;20021;-63
2021/03/08 06:49:24;;;;;;;24.70;18.20;;;;;;;;;;5053922;28;20052;-64
2021/03/08 06:52:00;;;;;;;24.77;17.85;;;;;;;;;;5059285;28;20068;-64
2021/03/08 06:54:25;;;;;;;24.33;17.77;;;;;;;;;;5073777;28;20040;-64
2021/03/08 06:56:51;;;;;;;24.42;18.20;;;;;;;;;;5073598;28;20016;-64
2021/03/08 06:59:16;;;;;;;25.17;18.52;;;;;;;;;;5073240;28;20085;-64
2021/03/08 07:01:44;;;;;;;24.17;17.85;;;;;;;;;;5073427;28;20016;-64
2021/03/08 07:04:11;;;;;;;25.23;18.52;;;;;;;;;;5073692;28;20031;-64
2021/03/08 07:06:36;;;;;;;22.83;18.77;;;;;;;;;;5073248;28;20463;-64
2021/03/08 07:09:05;;;;;;;27.63;18.73;;;;;;;;;;5072856;28;20021;-64
2021/03/08 07:11:31;;;;;;;24.17;18.20;;;;;;;;;;5072481;28;20017;-64
2021/03/08 07:13:57;;;;;;;28.65;18.83;;;;;;;;;;5072187;28;20573;-64
2021/03/08 07:16:32;;;;;;;23.08;17.27;;;;;;;;;;5073637;28;20101;-64
2021/03/08 07:18:58;;;;;;;25.85;19.38;;;;;;;;;;5063934;28;20040;-64
2021/03/08 07:21:23;;;;;;;25.75;19.02;;;;;;;;;;5061080;28;20029;-64
2021/03/08 07:23:51;;;;;;;27.38;19.40;;;;;;;;;;5042813;28;20020;-64
2021/03/08 07:26:17;;;;;;;27.95;18.95;;;;;;;;;;5064936;28;20020;-64
2021/03/08 07:28:43;;;;;;;29.08;19.77;;;;;;;;;;5055002;28;20036;-64
2021/03/08 07:31:29;;;;;;;28.95;20.05;;;;;;;;;;5061107;28;20020;-64
2021/03/08 07:33:59;;;;;;;28.52;20.02;;;;;;;;;;5057329;28;20021;-64
2021/03/08 07:36:24;;;;;;;28.35;20.15;;;;;;;;;;5051419;28;20421;-64
2021/03/08 07:38:50;;;;;;;28.02;20.05;;;;;;;;;;5055038;28;20020;-64
2021/03/08 07:41:20;;;;;;;29.98;20.00;;;;;;;;;;5061483;28;20079;-64
2021/03/08 07:43:46;;;;;;;28.30;20.23;;;;;;;;;;5051701;28;20017;-64
2021/03/08 07:46:26;;;;;;;32.03;22.60;;;;;;;;;;5062087;28;20115;-63
2021/03/08 07:48:51;;;;;;;36.80;23.35;;;;;;;;;;5073006;28;20421;-64
2021/03/08 07:51:16;;;;;;;35.05;23.10;;;;;;;;;;5072522;28;20041;-64
2021/03/08 07:53:42;;;;;;;35.00;24.42;;;;;;;;;;5073061;28;20029;-63
2021/03/08 07:56:09;;;;;;;39.78;28.30;;;;;;;;;;5066309;28;20020;-63
2021/03/08 07:58:35;;;;;;;47.25;28.90;;;;;;;;;;5064694;28;20020;-63
2021/03/08 08:01:01;;;;;;;31.80;20.73;;;;;;;;;;5061647;28;20021;-64
2021/03/08 08:03:28;;;;;;;30.65;20.92;;;;;;;;;;5069913;28;20438;-63
2021/03/08 08:06:07;;;;;;;256.95;178.25;;;;;;;;;;5076568;28;20399;-64
2021/03/08 08:08:59;;;;;;;98.55;78.60;;;;;;;;;;5070827;28;20017;-64
2021/03/08 08:11:28;;;;;;;65.90;52.35;;;;;;;;;;5068185;28;20036;-64
2021/03/08 08:13:57;;;;;;;50.95;39.55;;;;;;;;;;5040426;28;20044;-64
2021/03/08 08:16:25;;;;;;;64.93;57.63;;;;;;;;;;5072429;28;20034;-64
2021/03/08 08:18:57;;;;;;;97.03;86.50;;;;;;;;;;5074950;28;20023;-65
2021/03/08 08:21:23;;;;;;;51.70;43.60;;;;;;;;;;5072202;28;20021;-64
2021/03/08 08:23:57;;;;;;;35.72;29.58;;;;;;;;;;5073543;28;20019;-64
2021/03/08 08:26:24;;;;;;;19.33;16.75;;;;;;;;;;5065205;28;20040;-64
2021/03/08 08:28:50;;;;;;;27.25;21.42;;;;;;;;;;5071046;28;20415;-64
2021/03/08 08:31:15;;;;;;;29.58;19.95;;;;;;;;;;5074488;28;20060;-64
2021/03/08 08:33:41;;;;;;;43.00;31.02;;;;;;;;;;5056782;28;20055;-62
2021/03/08 08:36:09;;;;;;;574.33;398.80;;;;;;;;;;5074504;28;20112;-62
2021/03/08 08:38:35;;;;;;;424.48;248.68;;;;;;;;;;5074499;28;20008;-62
2021/03/08 08:41:17;;;;;;;1172.93;655.20;;;;;;;;;;5070622;28;20104;-62
2021/03/08 08:43:43;;;;;;;1115.93;616.38;;;;;;;;;;5072078;28;20039;-62
2021/03/08 08:46:22;;;;;;;443.02;223.85;;;;;;;;;;5074360;28;20017;-62
2021/03/08 08:49:03;;;;;;;59.92;28.58;;;;;;;;;;5072703;28;20111;-62
2021/03/08 08:51:46;;;;;;;564.00;233.07;;;;;;;;;;5072948;28;20072;-62
2021/03/08 08:54:11;;;;;;;802.28;298.50;;;;;;;;;;5065668;28;20024;-62
2021/03/08 08:56:48;;;;;;;19.10;13.40;;;;;;;;;;5072019;28;20051;-62
2021/03/08 08:59:21;;;;;;;609.80;211.02;;;;;;;;;;5075813;28;20028;-62
2021/03/08 09:01:47;;;;;;;170.60;67.40;;;;;;;;;;5045565;28;20032;-62
2021/03/08 09:04:15;;;;;;;17.90;13.00;;;;;;;;;;5067546;28;20028;-62
2021/03/08 09:06:42;;;;;;;1578.47;552.20;;;;;;;;;;5060549;28;20103;-62
2021/03/08 09:09:07;;;;;;;711.33;271.73;;;;;;;;;;5075686;28;20025;-62
2021/03/08 09:11:44;;;;;;;858.97;344.10;;;;;;;;;;5075466;28;20024;-62
2021/03/08 09:14:26;;;;;;;1003.45;457.70;;;;;;;;;;5057355;28;20043;-62
2021/03/08 09:17:24;;;;;;;632.42;261.50;;;;;;;;;;5050196;28;20040;-62
2021/03/08 09:19:50;;;;;;;546.78;220.32;;;;;;;;;;5000605;28;20099;-62
2021/03/08 09:22:27;;;;;;;669.17;339.27;;;;;;;;;;5055385;28;20478;-62
2021/03/08 09:25:08;;;;;;;653.30;312.58;;;;;;;;;;5055049;28;20032;-62
2021/03/08 09:27:42;;;;;;;583.20;284.08;;;;;;;;;;5055704;28;20049;-62
2021/03/08 09:30:16;;;;;;;483.35;252.70;;;;;;;;;;5055087;28;20423;-62
2021/03/08 09:32:52;;;;;;;403.48;186.00;;;;;;;;;;5055306;28;20029;-62
2021/03/08 09:35:19;;;;;;;616.85;336.73;;;;;;;;;;5055526;28;20029;-62
2021/03/08 09:37:46;;;;;;;13.80;9.73;;;;;;;;;;5065654;28;20016;-62
2021/03/08 09:40:14;;;;;;;226.20;104.57;;;;;;;;;;5045326;28;20480;-62
2021/03/08 09:42:39;;;;;;;238.70;119.75;;;;;;;;;;5064935;28;20042;-62
2021/03/08 09:45:24;;;;;;;22.73;15.13;;;;;;;;;;5075051;28;20025;-62
2021/03/08 09:47:51;;;;;;;68.10;40.95;;;;;;;;;;5074819;28;20126;-62
2021/03/08 09:50:18;;;;;;;124.97;71.10;;;;;;;;;;5069982;28;20596;-65
2021/03/08 09:52:46;;;;;;;51.42;33.25;;;;;;;;;;5064985;28;20498;-65
2021/03/08 09:55:16;;;;;;;62.13;38.50;;;;;;;;;;5066256;28;20031;-65
2021/03/08 09:57:43;;;;;;;50.97;30.73;;;;;;;;;;5056737;28;20044;-65
2021/03/08 10:00:08;;;;;;;21.33;15.25;;;;;;;;;;5038410;28;20459;-65
2021/03/08 10:02:34;;;;;;;76.05;47.83;;;;;;;;;;5055051;28;20035;-65
2021/03/08 10:04:59;;;;;;;84.57;58.63;;;;;;;;;;5056962;28;20020;-66
2021/03/08 10:07:25;;;;;;;151.18;101.88;;;;;;;;;;5063754;28;20048;-65
2021/03/08 10:10:09;;;;;;;75.90;53.65;;;;;;;;;;5063795;28;20020;-65
2021/03/08 10:12:35;;;;;;;43.92;33.33;;;;;;;;;;5056785;28;20024;-65
2021/03/08 10:15:01;;;;;;;30.75;23.10;;;;;;;;;;5074562;28;20356;-65
2021/03/08 10:17:27;;;;;;;31.23;24.80;;;;;;;;;;5074357;28;20403;-64
2021/03/08 10:19:56;;;;;;;19.77;17.83;;;;;;;;;;5073726;28;20024;-65
2021/03/08 10:22:31;;;;;;;25.50;20.92;;;;;;;;;;5073167;28;20033;-64
2021/03/08 10:24:58;;;;;;;12.82;10.70;;;;;;;;;;5063743;28;20028;-65
2021/03/08 10:27:23;;;;;;;11.63;10.18;;;;;;;;;;5063114;28;20024;-65
2021/03/08 10:29:51;;;;;;;13.90;11.70;;;;;;;;;;5073233;28;20028;-64
2021/03/08 10:32:17;;;;;;;10.80;6.72;;;;;;;;;;5072122;28;20028;-65
2021/03/08 10:34:43;;;;;;;9.32;7.53;;;;;;;;;;5072158;28;20040;-65
2021/03/08 10:37:11;;;;;;;35.83;26.92;;;;;;;;;;5072822;28;20031;-65
2021/03/08 10:39:38;;;;;;;46.28;35.33;;;;;;;;;;5073109;28;20043;-65
2021/03/08 10:42:03;;;;;;;20.70;15.20;;;;;;;;;;5068797;28;20049;-65
2021/03/08 10:44:29;;;;;;;77.38;61.83;;;;;;;;;;5045776;28;20020;-65
2021/03/08 10:46:55;;;;;;;44.40;34.38;;;;;;;;;;5064658;28;20070;-65
2021/03/08 10:49:20;;;;;;;43.65;35.78;;;;;;;;;;5063602;28;20086;-65
2021/03/08 10:51:46;;;;;;;36.08;27.50;;;;;;;;;;5055713;28;20091;-66
2021/03/08 10:54:13;;;;;;;25.80;16.70;;;;;;;;;;5035811;28;20091;-65
2021/03/08 10:56:42;;;;;;;44.60;35.20;;;;;;;;;;5053681;28;20021;-65
2021/03/08 10:59:21;;;;;;;14.63;10.90;;;;;;;;;;5053814;28;20451;-65
2021/03/08 11:01:59;;;;;;;8.75;7.63;;;;;;;;;;5053569;28;20033;-65
2021/03/08 11:04:25;;;;;;;12.65;8.68;;;;;;;;;;5053369;28;20033;-65
2021/03/08 11:06:51;;;;;;;10.80;8.57;;;;;;;;;;5053738;28;20024;-65
2021/03/08 11:09:24;;;;;;;12.77;11.40;;;;;;;;;;5053483;28;20037;-65
2021/03/08 11:11:50;;;;;;;20.63;16.92;;;;;;;;;;5035830;28;20028;-65
2021/03/08 11:14:15;;;;;;;30.17;24.60;;;;;;;;;;5053343;28;20055;-64
2021/03/08 11:16:48;;;;;;;18.60;15.02;;;;;;;;;;5053684;28;20021;-64
2021/03/08 11:19:24;;;;;;;4.13;3.72;;;;;;;;;;5053959;28;20029;-64
2021/03/08 11:22:08;;;;;;;4.10;3.80;;;;;;;;;;5053575;28;20033;-65
2021/03/08 11:24:40;;;;;;;146.32;66.68;;;;;;;;;;5053174;28;20365;-65
2021/03/08 11:27:12;;;;;;;5.75;5.10;;;;;;;;;;5053161;28;20108;-61
2021/03/08 11:29:39;;;;;;;3.72;3.42;;;;;;;;;;5035472;28;20040;-63
2021/03/08 11:32:05;;;;;;;44.22;24.73;;;;;;;;;;5053189;28;20096;-64
2021/03/08 11:34:43;;;;;;;9.43;7.07;;;;;;;;;;5056644;28;20028;-64
2021/03/08 11:37:15;;;;;;;8.35;6.30;;;;;;;;;;5055951;28;20029;-64
2021/03/08 11:39:41;;;;;;;467.92;207.32;;;;;;;;;;5057344;28;20096;-64
2021/03/08 11:42:07;;;;;;;684.10;303.98;;;;;;;;;;5043016;28;20025;-59
2021/03/08 11:44:33;;;;;;;580.42;239.88;;;;;;;;;;5045946;28;20363;-58
2021/03/08 11:46:58;;;;;;;706.55;281.30;;;;;;;;;;5069339;28;20024;-58
2021/03/08 11:49:24;;;;;;;66.55;28.75;;;;;;;;;;5065761;28;20033;-59
2021/03/08 11:51:51;;;;;;;389.83;131.63;;;;;;;;;;5066793;28;20052;-59
2021/03/08 11:54:16;;;;;;;381.60;128.38;;;;;;;;;;5066361;28;20035;-64
2021/03/08 11:56:43;;;;;;;340.65;112.38;;;;;;;;;;5046857;28;20021;-64
2021/03/08 11:59:10;;;;;;;532.85;170.23;;;;;;;;;;5058613;28;20398;-64
2021/03/08 12:01:35;;;;;;;310.23;88.90;;;;;;;;;;5077062;28;20016;-64
2021/03/08 12:04:02;;;;;;;24.27;9.98;;;;;;;;;;5068060;28;20111;-64
2021/03/08 12:06:27;;;;;;;5.30;3.25;;;;;;;;;;5066251;28;20103;-64
2021/03/08 12:08:53;;;;;;;10.65;4.93;;;;;;;;;;5051385;28;20116;-64
2021/03/08 12:11:19;;;;;;;6.85;3.33;;;;;;;;;;5070916;28;20474;-64
2021/03/08 12:13:45;;;;;;;2.92;2.60;;;;;;;;;;5076843;28;20036;-64
2021/03/08 12:16:10;;;;;;;2.92;2.47;;;;;;;;;;5076717;28;20020;-64
2021/03/08 12:18:36;;;;;;;3.83;2.55;;;;;;;;;;5068230;28;20029;-64
2021/03/08 12:21:02;;;;;;;2.90;2.70;;;;;;;;;;5042972;28;20028;-64
2021/03/08 12:23:28;;;;;;;379.20;124.45;;;;;;;;;;5064021;28;20041;-64
2021/03/08 12:26:01;;;;;;;127.68;44.35;;;;;;;;;;5076439;28;20020;-64
2021/03/08 12:28:27;;;;;;;825.97;367.00;;;;;;;;;;5067776;28;20028;-65
2021/03/08 12:30:54;;;;;;;704.58;285.70;;;;;;;;;;5068217;28;20043;-65
2021/03/08 12:33:21;;;;;;;339.10;140.40;;;;;;;;;;5070422;28;20478;-65
2021/03/08 12:35:46;;;;;;;586.80;240.07;;;;;;;;;;5072519;28;20020;-65
2021/03/08 12:38:12;;;;;;;544.33;238.93;;;;;;;;;;5049856;28;20021;-64
2021/03/08 12:40:38;;;;;;;812.53;375.88;;;;;;;;;;5076212;28;20022;-65
2021/03/08 12:43:03;;;;;;;32.22;16.83;;;;;;;;;;5067052;28;20071;-64
2021/03/08 12:45:29;;;;;;;70.25;29.45;;;;;;;;;;5066789;28;20047;-64
2021/03/08 12:47:54;;;;;;;288.65;122.45;;;;;;;;;;5076011;28;20037;-64
2021/03/08 12:50:20;;;;;;;142.63;65.13;;;;;;;;;;5063209;28;20040;-64
2021/03/08 12:52:45;;;;;;;258.75;123.22;;;;;;;;;;5056250;28;20033;-64
2021/03/08 12:55:11;;;;;;;182.65;84.25;;;;;;;;;;5055709;28;20025;-64
2021/03/08 12:57:37;;;;;;;69.38;39.17;;;;;;;;;;5056005;28;20067;-65
2021/03/08 13:00:06;;;;;;;130.50;69.05;;;;;;;;;;5055980;28;20057;-64
2021/03/08 13:02:32;;;;;;;90.72;56.38;;;;;;;;;;5055796;28;20032;-64
2021/03/08 13:04:57;;;;;;;141.43;75.40;;;;;;;;;;5055388;28;20009;-65
2021/03/08 13:07:23;;;;;;;51.00;29.65;;;;;;;;;;5065372;28;20082;-64
2021/03/08 13:09:48;;;;;;;33.47;17.08;;;;;;;;;;5075573;28;20502;-64
2021/03/08 13:12:14;;;;;;;52.95;29.90;;;;;;;;;;5075738;28;20029;-64
2021/03/08 13:14:39;;;;;;;18.67;12.60;;;;;;;;;;5074570;28;20078;-64
2021/03/08 13:17:05;;;;;;;5.35;4.13;;;;;;;;;;5075454;28;20040;-64
2021/03/08 13:19:32;;;;;;;47.45;27.35;;;;;;;;;;5075110;28;20017;-65
2021/03/08 13:21:58;;;;;;;40.85;22.23;;;;;;;;;;5075310;28;20028;-65
2021/03/08 13:24:24;;;;;;;3.92;2.83;;;;;;;;;;5063745;28;20158;-64
2021/03/08 13:26:50;;;;;;;3.25;2.40;;;;;;;;;;5055348;28;20527;-65
2021/03/08 13:29:15;;;;;;;8.25;6.53;;;;;;;;;;5055217;28;20154;-64
2021/03/08 13:31:41;;;;;;;5.80;4.10;;;;;;;;;;5055054;28;20033;-64
2021/03/08 13:34:06;;;;;;;7.55;5.32;;;;;;;;;;5055147;28;20029;-64
2021/03/08 13:36:32;;;;;;;7.47;4.32;;;;;;;;;;5055307;28;20033;-64
2021/03/08 13:38:58;;;;;;;5.30;3.55;;;;;;;;;;5065064;28;20463;-65
2021/03/08 13:41:25;;;;;;;8.27;4.07;;;;;;;;;;5075280;28;20074;-64
2021/03/08 13:43:50;;;;;;;8.43;4.20;;;;;;;;;;5074882;28;20112;-64
2021/03/08 13:46:16;;;;;;;7.72;4.85;;;;;;;;;;5074839;28;20052;-65
2021/03/08 13:48:41;;;;;;;4.93;3.78;;;;;;;;;;5073965;28;20013;-65
2021/03/08 13:51:07;;;;;;;10.60;7.30;;;;;;;;;;5055746;28;20440;-65
2021/03/08 13:53:32;;;;;;;10.65;9.55;;;;;;;;;;5074733;28;20032;-64
2021/03/08 13:55:59;;;;;;;24.85;20.92;;;;;;;;;;5073993;28;20039;-64
2021/03/08 13:58:24;;;;;;;9.93;5.95;;;;;;;;;;5074556;28;20382;-65
2021/03/08 14:00:50;;;;;;;21.65;15.45;;;;;;;;;;5074586;28;20111;-64
2021/03/08 14:03:15;;;;;;;16.35;9.73;;;;;;;;;;5074512;28;20115;-64
2021/03/08 14:05:41;;;;;;;72.10;35.20;;;;;;;;;;5074472;28;20029;-65
2021/03/08 14:08:07;;;;;;;19.60;9.35;;;;;;;;;;5074554;28;20024;-65
2021/03/08 14:10:32;;;;;;;15.75;7.68;;;;;;;;;;5074505;28;20111;-65
2021/03/08 14:12:58;;;;;;;11.35;7.53;;;;;;;;;;5056631;28;20028;-64
2021/03/08 14:15:23;;;;;;;15.88;11.88;;;;;;;;;;5044820;28;20031;-64
2021/03/08 14:17:49;;;;;;;23.23;7.88;;;;;;;;;;5041447;28;20021;-64
2021/03/08 14:20:15;;;;;;;13.57;9.68;;;;;;;;;;5051548;28;20036;-64